Time;durP1;ratioP1;P1;durP2;ratioP2;P2;SDS_P1;SDS_P2;PMS_P1;PMS_P2;Temp;Humidity;BMP_temperature;BMP_pressure;BME280_temperature;BME280_humidity;BME280_pressure;Samples;Min_cycle;Max_cycle;Signal;HPM_P1;HPM_P2
2024/01/18 00:02:22;;;;;;;18.77;12.07;;;-0.30;99.90;;;;;;4990910;28;20172;-84
2024/01/18 00:04:48;;;;;;;16.73;11.40;;;-0.30;99.90;;;;;;4991651;28;20176;-85
2024/01/18 00:07:13;;;;;;;16.70;11.33;;;-0.30;99.90;;;;;;4991193;28;20346;-85
2024/01/18 00:09:39;;;;;;;18.00;11.47;;;-0.30;99.90;;;;;;4991673;28;20183;-85
2024/01/18 00:12:05;;;;;;;17.80;11.53;;;-0.30;99.90;;;;;;4990680;28;20179;-84
2024/01/18 00:14:31;;;;;;;16.70;11.60;;;-0.30;99.90;;;;;;4990863;28;20179;-84
2024/01/18 00:16:56;;;;;;;17.57;11.30;;;-0.30;99.90;;;;;;4992158;28;20210;-85
2024/01/18 00:19:22;;;;;;;18.13;11.77;;;-0.30;99.90;;;;;;4990485;28;20237;-84
2024/01/18 00:21:47;;;;;;;16.83;11.47;;;-0.30;99.90;;;;;;4990480;28;20176;-84
2024/01/18 00:24:13;;;;;;;16.63;12.00;;;-0.30;99.90;;;;;;4992268;28;20176;-85
2024/01/18 00:26:38;;;;;;;17.77;11.27;;;-0.30;99.90;;;;;;4992280;28;20195;-84
2024/01/18 00:29:04;;;;;;;17.80;11.17;;;-0.30;99.90;;;;;;4992475;28;20190;-85
2024/01/18 00:31:29;;;;;;;15.60;11.10;;;-0.40;99.90;;;;;;4991214;28;20176;-84
2024/01/18 00:33:58;;;;;;;16.10;9.97;;;-0.30;99.90;;;;;;4992274;28;20263;-85
2024/01/18 00:36:24;;;;;;;16.80;11.43;;;-0.30;99.90;;;;;;4992238;28;20621;-85
2024/01/18 00:38:50;;;;;;;16.80;11.10;;;-0.30;99.90;;;;;;4991489;28;20275;-84
2024/01/18 00:41:15;;;;;;;15.77;11.03;;;-0.40;99.90;;;;;;4990195;28;20239;-84
2024/01/18 00:43:41;;;;;;;15.70;10.27;;;-0.30;99.90;;;;;;4992069;28;20180;-84
2024/01/18 00:46:07;;;;;;;17.30;11.40;;;-0.40;99.90;;;;;;4991615;28;20207;-85
2024/01/18 00:48:32;;;;;;;17.50;10.90;;;-0.40;99.90;;;;;;4992044;28;20179;-85
2024/01/18 00:50:58;;;;;;;16.40;10.60;;;-0.40;99.90;;;;;;4990225;28;20186;-84
2024/01/18 00:53:24;;;;;;;19.80;11.20;;;-0.40;99.90;;;;;;4989965;28;20172;-84
2024/01/18 00:55:50;;;;;;;17.00;11.23;;;-0.40;99.90;;;;;;4990507;28;20215;-85
2024/01/18 00:58:15;;;;;;;15.20;10.33;;;-0.40;99.90;;;;;;4990450;28;20178;-84
2024/01/18 01:00:41;;;;;;;16.93;10.73;;;-0.40;99.90;;;;;;4989933;28;20204;-85
2024/01/18 01:03:06;;;;;;;15.60;10.63;;;-0.40;99.90;;;;;;4990474;28;20176;-85
2024/01/18 01:05:32;;;;;;;16.13;10.50;;;-0.40;99.90;;;;;;4992622;28;20199;-85
2024/01/18 01:07:57;;;;;;;16.03;10.70;;;-0.40;99.90;;;;;;4990409;28;20176;-85
2024/01/18 01:10:23;;;;;;;15.90;10.83;;;-0.40;99.90;;;;;;4990519;28;20182;-85
2024/01/18 01:12:49;;;;;;;18.20;11.20;;;-0.50;99.90;;;;;;4990996;28;20240;-84
2024/01/18 01:15:14;;;;;;;15.50;10.00;;;-0.50;99.90;;;;;;4997613;28;20218;-84
2024/01/18 01:17:40;;;;;;;15.73;10.07;;;-0.50;99.90;;;;;;4997358;28;20195;-85
2024/01/18 01:20:09;;;;;;;16.77;10.27;;;-0.50;99.90;;;;;;4998000;28;20208;-84
2024/01/18 01:22:35;;;;;;;15.90;9.70;;;-0.50;99.90;;;;;;4997911;28;20188;-84
2024/01/18 01:25:01;;;;;;;14.70;10.03;;;-0.50;99.90;;;;;;4996573;28;20218;-85
2024/01/18 01:27:26;;;;;;;15.63;9.87;;;-0.50;99.90;;;;;;4995933;28;20242;-85
2024/01/18 01:29:52;;;;;;;14.10;10.10;;;-0.50;99.90;;;;;;4996067;28;20187;-85
2024/01/18 01:32:17;;;;;;;13.47;9.30;;;-0.50;99.90;;;;;;4995567;28;20183;-85
2024/01/18 01:34:43;;;;;;;14.30;9.43;;;-0.50;99.90;;;;;;4995626;28;20176;-83
2024/01/18 01:37:08;;;;;;;14.87;9.30;;;-0.50;99.90;;;;;;4994729;28;20203;-84
2024/01/18 01:39:34;;;;;;;14.77;9.20;;;-0.50;99.90;;;;;;4995291;28;20210;-85
2024/01/18 01:42:00;;;;;;;14.53;9.03;;;-0.50;99.90;;;;;;4994842;28;20675;-86
2024/01/18 01:44:25;;;;;;;14.10;8.80;;;-0.50;99.90;;;;;;4995834;28;20236;-85
2024/01/18 01:46:51;;;;;;;12.70;9.33;;;-0.50;99.90;;;;;;4995059;28;20196;-85
2024/01/18 01:49:16;;;;;;;14.43;8.60;;;-0.60;99.90;;;;;;4995313;28;20179;-85
2024/01/18 01:51:48;;;;;;;11.67;8.37;;;-0.60;99.90;;;;;;4994801;28;20180;-86
2024/01/18 01:54:18;;;;;;;13.33;8.87;;;-0.60;99.90;;;;;;4996754;28;20222;-84
2024/01/18 01:56:47;;;;;;;14.80;8.90;;;-0.60;99.90;;;;;;4995389;28;20219;-85
2024/01/18 01:59:15;;;;;;;13.73;9.17;;;-0.60;99.90;;;;;;4995044;28;20276;-85
2024/01/18 02:01:44;;;;;;;13.27;8.60;;;-0.60;99.90;;;;;;4994757;28;20213;-84
2024/01/18 02:04:10;;;;;;;12.93;9.03;;;-0.60;99.90;;;;;;4995173;28;20176;-84
2024/01/18 02:06:37;;;;;;;13.67;9.17;;;-0.60;99.90;;;;;;4999664;28;20260;-84
2024/01/18 02:09:03;;;;;;;12.37;8.83;;;-0.60;99.90;;;;;;4999690;28;20189;-86
2024/01/18 02:11:29;;;;;;;14.30;8.87;;;-0.60;99.90;;;;;;4997797;28;20176;-85
2024/01/18 02:13:55;;;;;;;13.37;8.77;;;-0.50;99.90;;;;;;4998634;28;20188;-85
2024/01/18 02:16:21;;;;;;;13.77;9.33;;;-0.50;99.90;;;;;;4997891;28;20240;-85
2024/01/18 02:18:47;;;;;;;13.53;9.17;;;-0.50;99.90;;;;;;4998873;28;20203;-84
2024/01/18 02:21:13;;;;;;;14.07;7.80;;;-0.60;99.90;;;;;;4998900;28;20176;-85
2024/01/18 02:23:44;;;;;;;13.37;8.57;;;-0.50;99.90;;;;;;4998259;28;20171;-85
2024/01/18 02:26:10;;;;;;;11.47;8.17;;;-0.50;99.90;;;;;;4999146;28;20210;-84
2024/01/18 02:28:35;;;;;;;12.50;8.20;;;-0.60;99.90;;;;;;4997768;28;20168;-85
2024/01/18 02:31:01;;;;;;;12.57;8.13;;;-0.60;99.90;;;;;;4997211;28;20176;-84
2024/01/18 02:33:26;;;;;;;12.20;8.23;;;-0.60;99.90;;;;;;4997848;28;20176;-84
2024/01/18 02:35:52;;;;;;;14.67;8.03;;;-0.60;99.90;;;;;;4997523;28;20291;-85
2024/01/18 02:38:18;;;;;;;11.17;7.87;;;-0.60;99.90;;;;;;4997476;28;20176;-85
2024/01/18 02:40:43;;;;;;;10.90;7.87;;;-0.60;99.90;;;;;;4998228;28;20208;-85
2024/01/18 02:43:09;;;;;;;12.10;7.40;;;-0.60;99.90;;;;;;4998794;28;20172;-84
2024/01/18 02:45:36;;;;;;;12.23;7.87;;;-0.60;99.90;;;;;;4998254;28;20223;-85
2024/01/18 02:48:02;;;;;;;11.60;8.20;;;-0.60;99.90;;;;;;4997053;28;20203;-84
2024/01/18 02:50:28;;;;;;;12.03;7.83;;;-0.60;99.90;;;;;;4997897;28;20179;-84
2024/01/18 02:52:53;;;;;;;11.80;8.40;;;-0.60;99.90;;;;;;4996736;28;20274;-84
2024/01/18 02:55:19;;;;;;;11.70;8.37;;;-0.60;99.90;;;;;;4997308;28;20203;-84
2024/01/18 02:57:44;;;;;;;13.50;8.60;;;-0.60;99.90;;;;;;4996244;28;20186;-84
2024/01/18 03:00:13;;;;;;;13.03;8.33;;;-0.60;99.90;;;;;;4996833;28;20241;-85
2024/01/18 03:02:39;;;;;;;12.87;8.50;;;-0.60;99.90;;;;;;4997239;28;20190;-84
2024/01/18 03:05:05;;;;;;;14.37;9.10;;;-0.70;99.90;;;;;;4997957;28;20588;-84
2024/01/18 03:07:31;;;;;;;12.90;8.67;;;-0.70;99.90;;;;;;4997709;28;20176;-85
2024/01/18 03:09:57;;;;;;;13.60;9.30;;;-0.70;99.90;;;;;;4997457;28;20176;-84
2024/01/18 03:12:22;;;;;;;14.17;9.33;;;-0.70;99.90;;;;;;4997174;28;20168;-85
2024/01/18 03:14:48;;;;;;;12.87;8.60;;;-0.70;99.90;;;;;;4997522;28;20191;-84
2024/01/18 03:17:14;;;;;;;14.50;9.17;;;-0.60;99.90;;;;;;4997260;28;20201;-85
2024/01/18 03:19:39;;;;;;;12.73;8.87;;;-0.60;99.90;;;;;;4995736;28;20218;-84
2024/01/18 03:22:05;;;;;;;13.30;8.27;;;-0.60;99.90;;;;;;4996453;28;20221;-84
2024/01/18 03:24:30;;;;;;;14.57;8.60;;;-0.60;99.90;;;;;;4996987;28;20199;-84
2024/01/18 03:26:56;;;;;;;13.37;8.40;;;-0.60;99.90;;;;;;4997362;28;20565;-85
2024/01/18 03:29:21;;;;;;;11.93;8.10;;;-0.50;99.90;;;;;;4996508;28;20186;-84
2024/01/18 03:31:47;;;;;;;12.93;7.90;;;-0.50;99.90;;;;;;4994950;28;20267;-84
2024/01/18 03:34:12;;;;;;;10.90;7.13;;;-0.50;99.90;;;;;;4994985;28;20312;-84
2024/01/18 03:36:38;;;;;;;9.90;7.03;;;-0.50;99.90;;;;;;4994963;28;20199;-84
2024/01/18 03:39:06;;;;;;;12.43;7.43;;;-0.50;99.90;;;;;;4995191;28;20209;-84
2024/01/18 03:41:31;;;;;;;10.03;7.23;;;-0.50;99.90;;;;;;4994750;28;20654;-85
2024/01/18 03:43:57;;;;;;;10.93;7.43;;;-0.50;99.90;;;;;;4994889;28;20175;-84
2024/01/18 03:46:23;;;;;;;11.20;7.10;;;-0.60;99.90;;;;;;4996255;28;20204;-85
2024/01/18 03:48:48;;;;;;;9.73;6.93;;;-0.60;99.90;;;;;;4995189;28;20184;-84
2024/01/18 03:51:14;;;;;;;11.40;7.30;;;-0.70;99.90;;;;;;4993931;28;20186;-84
2024/01/18 03:53:43;;;;;;;10.83;7.70;;;-0.70;99.90;;;;;;4996469;28;20179;-84
2024/01/18 03:56:10;;;;;;;9.93;7.40;;;-0.70;99.90;;;;;;4995834;28;20610;-84
2024/01/18 03:58:37;;;;;;;11.07;7.17;;;-0.70;99.90;;;;;;4994535;28;20192;-84
2024/01/18 04:01:02;;;;;;;11.00;7.63;;;-0.70;99.90;;;;;;4995806;28;20243;-84
2024/01/18 04:03:28;;;;;;;10.67;7.63;;;-0.70;99.90;;;;;;4996068;28;20219;-84
2024/01/18 04:05:54;;;;;;;10.07;7.20;;;-0.80;99.90;;;;;;4993966;28;20198;-86
2024/01/18 04:08:19;;;;;;;12.30;7.70;;;-0.80;99.90;;;;;;4993710;28;20209;-84
2024/01/18 04:10:45;;;;;;;12.77;8.23;;;-0.80;99.90;;;;;;4994033;28;20183;-84
2024/01/18 04:13:10;;;;;;;10.40;7.40;;;-0.90;99.90;;;;;;4993970;28;20179;-85
2024/01/18 04:15:36;;;;;;;11.50;7.77;;;-0.90;99.90;;;;;;4994194;28;20209;-85
2024/01/18 04:18:02;;;;;;;10.77;7.30;;;-0.90;99.90;;;;;;4993818;28;20187;-84
2024/01/18 04:20:29;;;;;;;13.17;7.73;;;-0.90;99.90;;;;;;4993552;28;20203;-84
2024/01/18 04:22:54;;;;;;;10.37;7.13;;;-0.90;99.90;;;;;;4995544;28;20176;-85
2024/01/18 04:25:20;;;;;;;11.00;8.00;;;-0.90;99.90;;;;;;4994114;28;20198;-86
2024/01/18 04:27:46;;;;;;;10.43;7.33;;;-0.90;99.90;;;;;;4994304;28;20228;-84
2024/01/18 04:30:12;;;;;;;10.43;7.00;;;-0.90;99.90;;;;;;4993093;28;20232;-84
2024/01/18 04:32:37;;;;;;;10.10;6.97;;;-0.90;99.90;;;;;;4994887;28;20620;-85
2024/01/18 04:35:04;;;;;;;10.73;7.33;;;-0.90;99.90;;;;;;4993303;28;20180;-84
2024/01/18 04:37:30;;;;;;;10.50;6.87;;;-0.90;99.90;;;;;;4993901;28;20243;-84
2024/01/18 04:39:55;;;;;;;10.17;6.60;;;-0.90;99.90;;;;;;4995427;28;20203;-84
2024/01/18 04:42:21;;;;;;;10.30;6.60;;;-0.90;99.90;;;;;;4994863;28;20250;-84
2024/01/18 04:44:46;;;;;;;10.10;6.90;;;-0.90;99.90;;;;;;4994768;28;20183;-84
2024/01/18 04:47:12;;;;;;;11.37;7.00;;;-0.90;99.90;;;;;;4992729;28;20199;-84
2024/01/18 04:49:38;;;;;;;11.27;6.77;;;-1.00;99.90;;;;;;4993192;28;20262;-84
2024/01/18 04:52:04;;;;;;;11.17;6.93;;;-1.00;99.90;;;;;;4994517;28;20190;-85
2024/01/18 04:54:29;;;;;;;11.37;7.07;;;-1.00;99.90;;;;;;4992984;28;20246;-84
2024/01/18 04:56:55;;;;;;;12.57;7.60;;;-1.00;99.90;;;;;;4993424;28;20215;-84
2024/01/18 04:59:20;;;;;;;10.80;7.30;;;-1.00;99.90;;;;;;4992199;28;20209;-83
2024/01/18 05:01:47;;;;;;;12.07;7.37;;;-1.00;99.90;;;;;;4992572;28;20209;-84
2024/01/18 05:04:13;;;;;;;12.17;7.43;;;-1.00;99.90;;;;;;4992193;28;20181;-84
2024/01/18 05:06:38;;;;;;;13.03;7.70;;;-1.10;99.90;;;;;;4994814;28;20195;-85
2024/01/18 05:09:04;;;;;;;11.47;7.73;;;-1.00;99.90;;;;;;4992797;28;20179;-84
2024/01/18 05:11:30;;;;;;;10.83;7.00;;;-1.00;99.90;;;;;;4991905;28;20183;-85
2024/01/18 05:13:56;;;;;;;12.17;7.57;;;-1.00;99.90;;;;;;4993756;28;20239;-84
2024/01/18 05:16:22;;;;;;;11.30;7.00;;;-1.00;99.90;;;;;;4992188;28;20266;-84
2024/01/18 05:18:48;;;;;;;9.73;6.83;;;-1.10;99.90;;;;;;4992135;28;20264;-84
2024/01/18 05:21:13;;;;;;;12.37;7.20;;;-1.10;99.90;;;;;;4993850;28;20700;-86
2024/01/18 05:23:39;;;;;;;12.10;6.90;;;-1.10;99.90;;;;;;4994357;28;20175;-84
2024/01/18 05:26:05;;;;;;;9.70;6.10;;;-1.10;99.90;;;;;;4994667;28;20199;-84
2024/01/18 05:28:30;;;;;;;9.83;6.77;;;-1.10;99.90;;;;;;4992070;28;20176;-84
2024/01/18 05:30:56;;;;;;;9.70;6.73;;;-1.10;99.90;;;;;;4992733;28;20179;-87
2024/01/18 05:33:22;;;;;;;11.00;6.73;;;-1.10;99.90;;;;;;4990829;28;20227;-86
2024/01/18 05:35:48;;;;;;;10.43;6.53;;;-1.10;99.90;;;;;;4990924;28;20293;-84
2024/01/18 05:38:13;;;;;;;10.47;7.03;;;-1.10;99.90;;;;;;4993084;28;20231;-84
2024/01/18 05:40:39;;;;;;;9.13;6.23;;;-1.10;99.90;;;;;;4993669;28;20229;-84
2024/01/18 05:43:05;;;;;;;8.03;5.77;;;-1.10;99.90;;;;;;4994418;28;20187;-85
2024/01/18 05:45:30;;;;;;;9.27;6.30;;;-1.10;99.90;;;;;;4993956;28;20198;-85
2024/01/18 05:47:56;;;;;;;10.80;5.70;;;-1.20;99.90;;;;;;4995336;28;20179;-84
2024/01/18 05:50:23;;;;;;;10.03;6.13;;;-1.20;99.90;;;;;;4993346;28;20211;-84
2024/01/18 05:52:48;;;;;;;8.70;5.63;;;-1.10;99.90;;;;;;4995927;28;20578;-86
2024/01/18 05:55:14;;;;;;;9.50;6.03;;;-1.10;99.90;;;;;;4994526;28;20781;-85
2024/01/18 05:57:41;;;;;;;10.47;6.33;;;-0.80;99.90;;;;;;4992959;28;20191;-84
2024/01/18 06:00:07;;;;;;;9.17;5.93;;;-0.60;99.90;;;;;;4993599;28;20274;-84
2024/01/18 06:02:32;;;;;;;9.07;5.80;;;-0.20;99.90;;;;;;4993215;28;20179;-84
2024/01/18 06:04:58;;;;;;;36.50;19.10;;;-0.20;99.90;;;;;;4995153;28;20176;-85
2024/01/18 06:07:24;;;;;;;10.13;6.03;;;-0.50;99.90;;;;;;4993871;28;20175;-85
2024/01/18 06:09:49;;;;;;;6.87;4.93;;;-0.70;99.90;;;;;;4994114;28;20690;-84
2024/01/18 06:12:15;;;;;;;9.40;4.87;;;-0.70;99.90;;;;;;4993615;28;20202;-86
2024/01/18 06:14:42;;;;;;;7.60;5.10;;;-0.80;99.90;;;;;;4996525;28;20183;-85
2024/01/18 06:17:07;;;;;;;9.70;4.70;;;-0.90;99.90;;;;;;4993360;28;20199;-86
2024/01/18 06:19:33;;;;;;;9.93;5.40;;;-1.00;99.90;;;;;;4995131;28;20294;-83
2024/01/18 06:21:58;;;;;;;9.07;5.60;;;-1.00;99.90;;;;;;4993231;28;20176;-84
2024/01/18 06:24:25;;;;;;;8.43;5.40;;;-1.10;99.90;;;;;;4994077;28;20180;-85
2024/01/18 06:26:52;;;;;;;10.17;5.70;;;-1.10;99.90;;;;;;4995866;28;20190;-85
2024/01/18 06:29:17;;;;;;;9.23;6.20;;;-1.20;99.90;;;;;;4994974;28;20202;-86
2024/01/18 06:31:43;;;;;;;9.00;6.03;;;-1.20;99.90;;;;;;4993252;28;20192;-85
2024/01/18 06:34:09;;;;;;;10.83;6.77;;;-1.30;99.90;;;;;;4995217;28;20208;-84
2024/01/18 06:36:37;;;;;;;10.87;6.87;;;-1.30;99.90;;;;;;4995417;28;20188;-86
2024/01/18 06:39:03;;;;;;;13.77;9.53;;;-1.40;99.90;;;;;;4995214;28;20581;-85
2024/01/18 06:41:28;;;;;;;12.27;6.50;;;-1.40;99.90;;;;;;4993896;28;20178;-86
2024/01/18 06:43:54;;;;;;;13.07;6.53;;;-1.40;99.90;;;;;;4995030;28;20179;-86
2024/01/18 06:46:21;;;;;;;10.87;6.67;;;-1.40;99.90;;;;;;4993650;28;20199;-88
2024/01/18 06:48:53;;;;;;;12.30;6.97;;;-1.40;99.90;;;;;;4997578;28;20174;-84
2024/01/18 06:51:20;;;;;;;11.73;6.87;;;-1.40;99.90;;;;;;4994871;28;20172;-86
2024/01/18 06:53:45;;;;;;;9.63;6.97;;;-1.40;99.90;;;;;;4995655;28;20224;-84
2024/01/18 06:56:14;;;;;;;13.57;7.23;;;-1.40;99.90;;;;;;4995922;28;20215;-84
2024/01/18 06:58:41;;;;;;;13.67;8.80;;;-1.50;99.90;;;;;;4996425;28;20220;-84
2024/01/18 07:01:07;;;;;;;13.30;8.07;;;-1.50;99.90;;;;;;4995994;28;20209;-85
2024/01/18 07:03:35;;;;;;;13.87;7.70;;;-1.50;99.90;;;;;;4995936;28;20180;-88
2024/01/18 07:06:04;;;;;;;12.63;8.03;;;-1.50;99.90;;;;;;4996232;28;20220;-88
2024/01/18 07:08:30;;;;;;;13.57;8.13;;;-1.50;99.90;;;;;;4998235;28;20195;-85
2024/01/18 07:10:56;;;;;;;12.27;7.63;;;-1.50;99.90;;;;;;4996768;28;20190;-85
2024/01/18 07:13:22;;;;;;;12.27;8.30;;;-1.50;99.90;;;;;;4998933;28;20190;-85
2024/01/18 07:15:48;;;;;;;14.50;8.20;;;-1.60;99.90;;;;;;4997076;28;20291;-83
2024/01/18 07:18:13;;;;;;;15.50;8.23;;;-1.60;99.90;;;;;;4997326;28;20236;-85
2024/01/18 07:20:39;;;;;;;11.50;7.60;;;-1.60;99.90;;;;;;4995635;28;20211;-85
2024/01/18 07:23:05;;;;;;;12.90;7.90;;;-1.60;99.90;;;;;;4995295;28;20182;-84
2024/01/18 07:25:30;;;;;;;12.53;7.70;;;-1.60;99.90;;;;;;4996034;28;20277;-85
2024/01/18 07:27:56;;;;;;;13.57;7.87;;;-1.70;99.90;;;;;;4996761;28;20183;-85
2024/01/18 07:30:22;;;;;;;18.73;11.13;;;-1.60;99.90;;;;;;4998603;28;20174;-86
2024/01/18 07:32:48;;;;;;;12.53;7.57;;;-1.60;99.90;;;;;;4996287;28;20179;-87
2024/01/18 07:35:16;;;;;;;16.43;10.57;;;-1.70;99.90;;;;;;4996550;28;20213;-87
2024/01/18 07:37:42;;;;;;;15.37;9.50;;;-1.70;99.90;;;;;;4996043;28;20179;-88
2024/01/18 07:40:08;;;;;;;10.73;7.47;;;-1.70;99.90;;;;;;4996660;28;20234;-86
2024/01/18 07:42:34;;;;;;;10.83;7.17;;;-1.80;99.90;;;;;;4996783;28;20287;-85
2024/01/18 07:44:59;;;;;;;11.73;7.83;;;-1.70;99.90;;;;;;4996100;28;20255;-86
2024/01/18 07:47:25;;;;;;;10.43;7.33;;;-1.70;99.90;;;;;;4997109;28;20200;-85
2024/01/18 07:49:51;;;;;;;13.20;8.43;;;-1.70;99.90;;;;;;4994666;28;20190;-85
2024/01/18 07:52:17;;;;;;;12.77;7.93;;;-1.70;99.90;;;;;;4991943;28;20190;-85
2024/01/18 07:54:43;;;;;;;16.30;9.07;;;-1.70;99.90;;;;;;4992527;28;20192;-85
2024/01/18 07:57:09;;;;;;;12.47;8.07;;;-1.60;99.90;;;;;;4990614;28;20215;-85
2024/01/18 07:59:34;;;;;;;14.23;8.30;;;-1.50;99.90;;;;;;4991086;28;20217;-87
2024/01/18 08:02:00;;;;;;;13.60;8.40;;;-1.40;99.90;;;;;;4991062;28;20179;-84
2024/01/18 08:04:26;;;;;;;13.70;7.77;;;-1.40;99.90;;;;;;4992677;28;20179;-84
2024/01/18 08:06:52;;;;;;;12.47;7.93;;;-1.30;99.90;;;;;;4991354;28;20194;-84
2024/01/18 08:09:18;;;;;;;12.47;7.87;;;-1.30;99.90;;;;;;4991063;28;20590;-83
2024/01/18 08:11:43;;;;;;;16.67;9.17;;;-1.20;99.90;;;;;;4990859;28;20182;-83
2024/01/18 08:14:11;;;;;;;14.77;8.90;;;-1.20;99.90;;;;;;4992316;28;20175;-83
2024/01/18 08:16:36;;;;;;;11.87;8.20;;;-1.20;99.90;;;;;;4992738;28;20202;-85
2024/01/18 08:19:02;;;;;;;15.03;9.73;;;-1.20;99.90;;;;;;4992527;28;20203;-83
2024/01/18 08:21:27;;;;;;;13.07;8.67;;;-1.20;99.90;;;;;;4992118;28;20213;-83
2024/01/18 08:23:53;;;;;;;13.10;8.27;;;-1.30;99.90;;;;;;4991385;28;20236;-83
2024/01/18 08:26:20;;;;;;;35.67;21.90;;;-1.30;99.90;;;;;;4991861;28;20268;-83
2024/01/18 08:28:46;;;;;;;12.67;8.73;;;-1.20;99.90;;;;;;4992671;28;20186;-83
2024/01/18 08:31:12;;;;;;;11.10;7.93;;;-1.10;99.90;;;;;;4990617;28;20186;-83
2024/01/18 08:33:37;;;;;;;11.53;7.30;;;-1.10;99.90;;;;;;4991306;28;20187;-83
2024/01/18 08:36:04;;;;;;;14.13;9.30;;;-1.00;99.90;;;;;;4991348;28;20197;-84
2024/01/18 08:38:30;;;;;;;22.93;15.07;;;-0.90;99.90;;;;;;4991942;28;20551;-83
2024/01/18 08:40:56;;;;;;;15.20;9.13;;;-0.80;99.90;;;;;;4992669;28;20297;-85
2024/01/18 08:43:26;;;;;;;12.87;8.63;;;-0.70;99.90;;;;;;4990998;28;20175;-83
2024/01/18 08:45:53;;;;;;;13.40;8.47;;;-0.60;99.90;;;;;;4992078;28;20237;-83
2024/01/18 08:48:20;;;;;;;14.27;8.17;;;-0.70;99.90;;;;;;4992220;28;20247;-83
2024/01/18 08:50:45;;;;;;;13.30;8.40;;;-0.70;99.90;;;;;;4991548;28;20183;-85
2024/01/18 08:53:11;;;;;;;12.30;8.40;;;-0.70;99.90;;;;;;4991545;28;20550;-83
2024/01/18 08:55:38;;;;;;;15.70;9.10;;;-0.80;99.90;;;;;;4991348;28;20210;-83
2024/01/18 08:58:04;;;;;;;11.50;7.53;;;-0.70;99.90;;;;;;4991980;28;20177;-83
2024/01/18 09:00:30;;;;;;;12.97;8.10;;;-0.70;99.90;;;;;;4990647;28;20313;-83
2024/01/18 09:02:56;;;;;;;12.57;7.87;;;-0.60;99.90;;;;;;4991019;28;20208;-85
2024/01/18 09:05:21;;;;;;;12.93;7.53;;;-0.50;99.90;;;;;;4992816;28;20233;-83
2024/01/18 09:07:47;;;;;;;11.97;7.53;;;-0.50;99.90;;;;;;4997227;28;20727;-83
2024/01/18 09:10:13;;;;;;;14.70;8.27;;;-0.40;99.90;;;;;;4989591;28;20187;-83
2024/01/18 09:12:38;;;;;;;12.37;7.63;;;-0.50;99.90;;;;;;4991578;28;20175;-83
2024/01/18 09:15:05;;;;;;;74.50;42.23;;;-0.50;99.90;;;;;;4992035;28;20179;-84
2024/01/18 09:17:30;;;;;;;15.43;9.80;;;-0.50;99.90;;;;;;4990986;28;20232;-83
2024/01/18 09:19:56;;;;;;;16.77;8.80;;;-0.60;99.90;;;;;;4989858;28;20207;-83
2024/01/18 09:22:21;;;;;;;11.03;7.27;;;-0.60;99.90;;;;;;4989642;28;20195;-83
2024/01/18 09:24:48;;;;;;;11.30;7.43;;;-0.60;99.90;;;;;;4990148;28;20664;-83
2024/01/18 09:27:13;;;;;;;11.13;7.37;;;-0.50;99.90;;;;;;4990807;28;20210;-84
2024/01/18 09:29:39;;;;;;;12.60;7.67;;;-0.60;99.90;;;;;;4989753;28;20179;-83
2024/01/18 09:32:06;;;;;;;10.30;7.17;;;-0.60;99.90;;;;;;4990956;28;20555;-85
2024/01/18 09:34:32;;;;;;;21.50;16.77;;;-0.50;99.90;;;;;;4991253;28;20205;-83
2024/01/18 09:36:58;;;;;;;12.83;8.07;;;-0.60;99.90;;;;;;4990130;28;20281;-83
2024/01/18 09:39:23;;;;;;;10.67;6.90;;;-0.50;99.90;;;;;;4990027;28;20245;-83
2024/01/18 09:41:51;;;;;;;10.10;6.83;;;-0.40;99.90;;;;;;4990172;28;20171;-83
2024/01/18 09:44:25;;;;;;;10.27;6.23;;;-0.40;99.90;;;;;;4991874;28;20718;-82
2024/01/18 09:46:52;;;;;;;11.07;7.27;;;-0.10;99.90;;;;;;4989527;28;20191;-84
2024/01/18 09:49:18;;;;;;;12.00;7.30;;;0.30;99.90;;;;;;4991761;28;20258;-83
2024/01/18 09:51:45;;;;;;;11.30;6.93;;;0.40;99.90;;;;;;4990273;28;20211;-83
2024/01/18 09:54:11;;;;;;;9.40;6.40;;;0.30;95.30;;;;;;4992255;28;20176;-83
2024/01/18 09:56:42;;;;;;;11.00;6.40;;;0.20;94.50;;;;;;4993100;28;20211;-83
2024/01/18 09:59:10;;;;;;;9.87;6.93;;;0.10;99.90;;;;;;4992137;28;20199;-83
2024/01/18 10:01:36;;;;;;;13.17;7.23;;;-0.10;99.90;;;;;;4993002;28;20171;-84
2024/01/18 10:04:02;;;;;;;9.43;6.33;;;0.00;99.90;;;;;;4991385;28;20179;-84
2024/01/18 10:06:28;;;;;;;9.97;6.70;;;-0.10;99.90;;;;;;4991644;28;20299;-84
2024/01/18 10:08:53;;;;;;;10.43;6.63;;;-0.10;99.90;;;;;;4993053;28;20176;-86
2024/01/18 10:11:19;;;;;;;9.73;6.53;;;-0.30;99.90;;;;;;4991806;28;20199;-84
2024/01/18 10:13:56;;;;;;;13.73;10.23;;;-0.20;99.90;;;;;;4991546;28;20222;-84
2024/01/18 10:16:27;;;;;;;10.30;6.70;;;-0.20;99.90;;;;;;4992195;28;20278;-84
2024/01/18 10:18:53;;;;;;;9.97;6.53;;;-0.20;99.90;;;;;;4993020;28;20172;-85
2024/01/18 10:21:20;;;;;;;12.50;8.63;;;-0.30;99.90;;;;;;4991713;28;20168;-83
2024/01/18 10:23:45;;;;;;;12.00;7.20;;;-0.40;99.90;;;;;;4991315;28;20169;-84
2024/01/18 10:26:11;;;;;;;10.53;6.87;;;-0.30;99.90;;;;;;4992352;28;20198;-84
2024/01/18 10:28:37;;;;;;;11.23;7.30;;;-0.30;99.90;;;;;;4994672;28;20187;-84
2024/01/18 10:31:03;;;;;;;12.30;7.07;;;-0.20;99.90;;;;;;4994122;28;20179;-84
2024/01/18 10:33:32;;;;;;;10.83;7.37;;;-0.10;99.90;;;;;;4994757;28;20274;-84
2024/01/18 10:35:57;;;;;;;12.33;7.27;;;-0.10;99.90;;;;;;4993976;28;20241;-84
2024/01/18 10:38:29;;;;;;;13.70;7.57;;;-0.10;99.90;;;;;;4995186;28;20564;-84
2024/01/18 10:40:57;;;;;;;9.87;6.87;;;0.00;99.90;;;;;;4993097;28;20203;-84
2024/01/18 10:43:24;;;;;;;11.93;7.60;;;0.10;99.90;;;;;;4993494;28;20239;-84
2024/01/18 10:45:50;;;;;;;11.00;7.53;;;0.20;99.90;;;;;;4993870;28;20213;-84
2024/01/18 10:48:17;;;;;;;15.93;9.70;;;0.20;99.90;;;;;;4995265;28;20175;-83
2024/01/18 10:50:44;;;;;;;18.83;11.50;;;0.10;99.90;;;;;;4994226;28;20183;-84
2024/01/18 10:53:10;;;;;;;17.00;9.63;;;0.20;99.90;;;;;;4993504;28;20187;-83
2024/01/18 10:55:35;;;;;;;11.37;7.70;;;0.30;99.90;;;;;;5022097;22;20215;-80
2024/01/18 10:58:01;;;;;;;12.43;7.40;;;0.40;99.90;;;;;;5037261;28;20188;-81
2024/01/18 11:00:26;;;;;;;38.97;23.70;;;0.50;99.90;;;;;;5054499;28;20236;-81
2024/01/18 11:02:53;;;;;;;16.53;9.43;;;0.50;99.90;;;;;;5037148;28;20169;-81
2024/01/18 11:05:21;;;;;;;24.70;14.77;;;0.60;99.90;;;;;;5036998;28;20181;-81
2024/01/18 11:07:47;;;;;;;11.40;8.20;;;0.50;73.10;;;;;;5053416;28;20205;-81
2024/01/18 11:10:13;;;;;;;13.13;8.43;;;0.70;69.40;;;;;;5036450;28;20177;-81
2024/01/18 11:12:43;;;;;;;16.83;12.57;;;0.70;70.30;;;;;;5055034;28;20181;-82
2024/01/18 11:15:10;;;;;;;13.30;8.03;;;0.80;18.60;;;;;;5036392;28;20227;-82
2024/01/18 11:17:45;;;;;;;14.27;9.57;;;0.90;1.00;;;;;;5036570;28;20252;-82
2024/01/18 11:20:11;;;;;;;13.67;8.03;;;0.90;1.00;;;;;;5036041;28;20304;-85
2024/01/18 11:22:36;;;;;;;14.77;8.53;;;0.90;1.00;;;;;;5036918;28;20208;-83
2024/01/18 11:25:07;;;;;;;13.87;9.23;;;0.90;6.60;;;;;;5054792;28;20181;-82
2024/01/18 11:27:40;;;;;;;12.67;8.10;;;1.00;13.10;;;;;;5036772;28;20676;-80
2024/01/18 11:30:10;;;;;;;18.43;12.30;;;1.00;1.00;;;;;;5035717;28;20192;-80
2024/01/18 11:32:37;;;;;;;11.60;8.03;;;1.00;1.00;;;;;;5036216;28;20185;-82
2024/01/18 11:35:15;;;;;;;12.93;8.73;;;0.90;1.00;;;;;;5054355;28;20179;-80
2024/01/18 11:37:41;;;;;;;17.20;11.97;;;0.90;1.00;;;;;;5036421;28;20201;-80
2024/01/18 11:40:09;;;;;;;16.30;10.73;;;0.90;1.00;;;;;;5053657;28;20206;-80
2024/01/18 11:42:35;;;;;;;16.63;11.47;;;0.80;2.80;;;;;;5036172;28;20170;-80
2024/01/18 11:45:12;;;;;;;15.67;9.57;;;0.90;27.60;;;;;;5054262;28;20162;-80
2024/01/18 11:47:38;;;;;;;11.90;8.23;;;0.90;96.70;;;;;;5036152;28;20196;-80
2024/01/18 11:50:07;;;;;;;12.23;7.90;;;1.00;97.00;;;;;;5053829;28;20181;-77
2024/01/18 11:52:34;;;;;;;14.20;8.57;;;1.20;28.70;;;;;;5036197;28;20669;-80
2024/01/18 11:55:01;;;;;;;11.20;7.63;;;1.30;29.50;;;;;;5036110;28;20179;-80
2024/01/18 11:57:27;;;;;;;12.80;8.00;;;1.40;26.10;;;;;;5053848;28;20210;-80
2024/01/18 11:59:56;;;;;;;10.00;6.93;;;1.50;1.00;;;;;;5053796;28;20616;-80
2024/01/18 12:02:22;;;;;;;12.47;7.73;;;1.60;1.00;;;;;;5053981;28;20177;-79
2024/01/18 12:04:48;;;;;;;10.93;7.40;;;1.60;1.00;;;;;;5036475;28;20174;-80
2024/01/18 12:07:15;;;;;;;9.53;6.70;;;1.60;1.00;;;;;;5036383;28;20200;-80
2024/01/18 12:09:41;;;;;;;11.77;7.37;;;1.60;1.00;;;;;;5035921;28;20184;-80
2024/01/18 12:12:07;;;;;;;11.73;7.50;;;1.50;1.00;;;;;;5054232;28;20631;-80
2024/01/18 12:14:38;;;;;;;11.40;7.67;;;1.50;2.20;;;;;;5054207;28;20180;-80
2024/01/18 12:17:04;;;;;;;10.63;7.10;;;1.40;51.60;;;;;;5052653;28;20199;-80
2024/01/18 12:19:37;;;;;;;10.13;6.80;;;1.30;1.00;;;;;;5053878;28;20548;-80
2024/01/18 12:22:09;;;;;;;11.30;6.83;;;1.30;1.00;;;;;;5035970;28;20159;-80
2024/01/18 12:24:36;;;;;;;10.63;7.30;;;1.20;98.40;;;;;;5036356;28;20166;-80
2024/01/18 12:27:02;;;;;;;10.77;7.13;;;1.20;81.90;;;;;;5035677;28;20280;-80
2024/01/18 12:29:30;;;;;;;12.80;7.07;;;1.20;71.20;;;;;;5036067;28;20228;-80
2024/01/18 12:31:56;;;;;;;10.70;6.93;;;1.10;17.10;;;;;;5035426;28;20718;-80
2024/01/18 12:34:22;;;;;;;11.87;7.17;;;1.20;21.90;;;;;;5035924;28;20718;-80